Time;durP1;ratioP1;P1;durP2;ratioP2;P2;SDS_P1;SDS_P2;PMS_P1;PMS_P2;Temp;Humidity;BMP_temperature;BMP_pressure;BME280_temperature;BME280_humidity;BME280_pressure;Samples;Min_cycle;Max_cycle;Signal;HPM_P1;HPM_P2
2022/10/04 00:00:26;;;;;;;20.40;7.95;;;;;;;;;;5023977;28;20478;-80
2022/10/04 00:02:53;;;;;;;13.02;8.18;;;;;;;;;;5060233;28;20021;-79
2022/10/04 00:20:52;;;;;;;16.33;7.07;;;;;;;;;;5020387;28;20603;-81
2022/10/04 00:23:17;;;;;;;;;;;;;;;;;;5030555;28;20479;-81
2022/10/04 00:25:42;;;;;;;17.27;9.40;;;;;;;;;;5042240;28;20362;-81
2022/10/04 00:28:27;;;;;;;9.77;6.97;;;;;;;;;;5041802;28;20028;-81
2022/10/04 00:31:11;;;;;;;14.27;8.18;;;;;;;;;;5030134;28;20047;-81
2022/10/04 00:33:41;;;;;;;13.80;8.07;;;;;;;;;;5030205;28;20120;-81
2022/10/04 00:36:24;;;;;;;20.08;8.45;;;;;;;;;;5022373;28;20552;-80
2022/10/04 00:39:02;;;;;;;11.63;7.22;;;;;;;;;;5021740;28;20068;-80
2022/10/04 00:41:29;;;;;;;11.55;7.38;;;;;;;;;;5030572;28;20480;-81
2022/10/04 00:43:56;;;;;;;11.05;7.18;;;;;;;;;;5029869;28;20017;-80
2022/10/04 00:46:22;;;;;;;9.35;7.07;;;;;;;;;;5017202;28;20771;-80
2022/10/04 00:48:51;;;;;;;13.07;8.07;;;;;;;;;;5028065;28;20032;-79
2022/10/04 00:51:30;;;;;;;11.27;7.05;;;;;;;;;;5017441;28;20030;-80
2022/10/04 00:54:11;;;;;;;11.68;7.03;;;;;;;;;;5018922;28;20028;-80
2022/10/04 00:56:42;;;;;;;10.48;6.60;;;;;;;;;;5030989;28;20025;-80
2022/10/04 00:59:10;;;;;;;11.20;6.82;;;;;;;;;;5032115;28;20025;-81
2022/10/04 01:01:36;;;;;;;8.13;5.63;;;;;;;;;;5030790;28;20498;-80
2022/10/04 01:04:03;;;;;;;9.73;6.30;;;;;;;;;;5029517;28;20033;-80
2022/10/04 01:06:29;;;;;;;9.05;5.82;;;;;;;;;;5029946;28;20013;-80
2022/10/04 01:08:55;;;;;;;7.15;5.20;;;;;;;;;;5029516;28;20018;-81
2022/10/04 01:11:28;;;;;;;9.10;5.68;;;;;;;;;;5029451;28;20051;-79
2022/10/04 01:14:00;;;;;;;17.08;6.47;;;;;;;;;;5027969;28;20129;-79
2022/10/04 01:16:32;;;;;;;11.57;6.10;;;;;;;;;;5029824;28;20033;-79
2022/10/04 01:19:17;;;;;;;8.35;5.82;;;;;;;;;;5027749;28;20041;-79
2022/10/04 01:21:45;;;;;;;8.93;5.70;;;;;;;;;;5027155;28;20029;-79
2022/10/04 01:24:11;;;;;;;12.70;5.47;;;;;;;;;;5027219;28;20025;-78
2022/10/04 01:26:38;;;;;;;8.90;4.93;;;;;;;;;;5029773;28;21338;-78
2022/10/04 01:29:06;;;;;;;10.95;5.30;;;;;;;;;;5022937;28;20794;-79
2022/10/04 01:31:32;;;;;;;13.30;5.85;;;;;;;;;;5016486;28;20026;-79
2022/10/04 01:34:01;;;;;;;7.82;5.30;;;;;;;;;;5022721;28;20871;-79
2022/10/04 01:36:27;;;;;;;10.55;5.63;;;;;;;;;;5026348;28;20045;-80
2022/10/04 01:38:52;;;;;;;9.15;4.90;;;;;;;;;;5026586;28;20040;-81
2022/10/04 01:41:20;;;;;;;10.15;5.18;;;;;;;;;;5026557;28;20025;-81
2022/10/04 01:43:48;;;;;;;9.80;5.88;;;;;;;;;;5028086;28;20025;-82
2022/10/04 01:46:20;;;;;;;13.80;5.47;;;;;;;;;;5028557;28;20076;-81
2022/10/04 01:48:46;;;;;;;10.82;5.22;;;;;;;;;;5030142;28;20027;-81
2022/10/04 01:51:26;;;;;;;8.82;4.72;;;;;;;;;;5027246;28;20116;-80
2022/10/04 01:54:00;;;;;;;16.17;5.53;;;;;;;;;;5026900;28;20022;-81
2022/10/04 01:56:28;;;;;;;7.82;5.13;;;;;;;;;;5025058;28;20025;-81
2022/10/04 01:58:58;;;;;;;9.98;4.95;;;;;;;;;;5027224;28;20476;-81
2022/10/04 02:01:44;;;;;;;5.75;4.60;;;;;;;;;;5027291;28;20021;-81
2022/10/04 02:04:20;;;;;;;9.13;5.35;;;;;;;;;;5029535;28;20388;-79
2022/10/04 02:06:48;;;;;;;8.88;5.15;;;;;;;;;;5028140;28;20025;-80
2022/10/04 02:09:16;;;;;;;12.05;5.70;;;;;;;;;;5028449;28;20480;-80
2022/10/04 02:11:43;;;;;;;11.55;5.53;;;;;;;;;;5029576;28;20102;-80
2022/10/04 02:14:14;;;;;;;14.63;5.68;;;;;;;;;;5027740;28;20088;-81
2022/10/04 02:16:40;;;;;;;14.93;5.75;;;;;;;;;;5028670;28;20475;-80
2022/10/04 02:19:07;;;;;;;10.77;5.07;;;;;;;;;;5019763;28;20025;-80
2022/10/04 02:21:34;;;;;;;13.88;5.80;;;;;;;;;;5026250;28;20025;-80
2022/10/04 02:23:59;;;;;;;10.27;4.88;;;;;;;;;;5028627;28;20021;-80
2022/10/04 02:26:25;;;;;;;7.75;4.47;;;;;;;;;;5028900;28;20772;-81
2022/10/04 02:28:50;;;;;;;14.70;5.97;;;;;;;;;;5027491;28;20068;-80
2022/10/04 02:34:03;;;;;;;8.82;4.13;;;;;;;;;;5023564;28;20913;-80
2022/10/04 02:36:29;;;;;;;19.42;5.53;;;;;;;;;;5028551;28;20078;-80
2022/10/04 02:39:00;;;;;;;7.40;4.75;;;;;;;;;;5033393;28;20033;-80
2022/10/04 02:41:52;;;;;;;22.15;5.63;;;;;;;;;;5028316;28;20511;-80
2022/10/04 02:44:25;;;;;;;15.25;5.35;;;;;;;;;;5029306;28;20030;-80
2022/10/04 02:46:51;;;;;;;8.35;4.75;;;;;;;;;;5029824;28;20048;-79
2022/10/04 02:49:25;;;;;;;12.48;6.03;;;;;;;;;;5015121;28;20025;-79
2022/10/04 02:51:50;;;;;;;;;;;;;;;;;;5039632;28;20052;-79
2022/10/04 02:54:19;;;;;;;18.70;6.00;;;;;;;;;;5016155;28;20305;-79
2022/10/04 02:56:44;;;;;;;7.13;4.38;;;;;;;;;;5034636;28;20475;-79
2022/10/04 02:59:15;;;;;;;12.57;5.70;;;;;;;;;;5033280;28;20091;-79
2022/10/04 03:01:57;;;;;;;12.48;4.68;;;;;;;;;;5028835;28;20022;-79
2022/10/04 03:04:37;;;;;;;9.45;5.00;;;;;;;;;;5037280;28;20277;-79
2022/10/04 03:07:04;;;;;;;15.43;6.25;;;;;;;;;;5027043;28;20045;-79
2022/10/04 03:09:29;;;;;;;11.63;4.90;;;;;;;;;;5042580;28;20055;-81
2022/10/04 03:11:55;;;;;;;10.30;4.72;;;;;;;;;;5029750;28;20053;-80
2022/10/04 03:14:21;;;;;;;12.63;5.43;;;;;;;;;;5028484;28;20694;-79
2022/10/04 03:16:48;;;;;;;8.73;5.30;;;;;;;;;;5026103;28;20767;-79
2022/10/04 03:19:15;;;;;;;10.63;5.63;;;;;;;;;;5026978;28;20488;-81
2022/10/04 03:21:42;;;;;;;9.85;4.68;;;;;;;;;;5026790;28;20025;-80
2022/10/04 03:24:11;;;;;;;17.25;4.50;;;;;;;;;;5027640;28;20345;-80
2022/10/04 03:26:44;;;;;;;10.27;4.95;;;;;;;;;;5027334;28;20117;-80
2022/10/04 03:29:11;;;;;;;9.10;4.88;;;;;;;;;;5028068;28;20060;-80
2022/10/04 03:31:40;;;;;;;12.40;5.90;;;;;;;;;;5034012;28;20017;-80
2022/10/04 03:34:12;;;;;;;19.05;5.47;;;;;;;;;;5010484;28;20052;-81
2022/10/04 03:36:38;;;;;;;12.70;7.32;;;;;;;;;;5030882;28;20084;-80
2022/10/04 03:39:06;;;;;;;8.43;4.95;;;;;;;;;;5025119;28;20033;-80
2022/10/04 03:41:32;;;;;;;13.32;6.20;;;;;;;;;;5021835;28;20033;-79
2022/10/04 03:43:57;;;;;;;11.55;5.93;;;;;;;;;;5027899;28;20016;-79
2022/10/04 03:46:23;;;;;;;7.50;5.22;;;;;;;;;;5030631;28;20475;-79
2022/10/04 03:48:50;;;;;;;11.82;6.30;;;;;;;;;;5022957;28;20029;-79
2022/10/04 03:51:17;;;;;;;10.15;5.90;;;;;;;;;;5031449;28;20038;-81
2022/10/04 03:53:44;;;;;;;13.73;5.07;;;;;;;;;;5029630;28;20025;-81
2022/10/04 03:56:15;;;;;;;10.50;6.00;;;;;;;;;;5032987;28;20025;-82
2022/10/04 03:58:41;;;;;;;10.32;5.78;;;;;;;;;;5018011;28;20022;-80
2022/10/04 04:01:33;;;;;;;13.02;5.50;;;;;;;;;;5031911;28;20391;-80
2022/10/04 04:03:58;;;;;;;9.18;5.35;;;;;;;;;;5026811;28;20037;-80
2022/10/04 04:06:24;;;;;;;11.93;5.50;;;;;;;;;;5029712;28;20028;-80
2022/10/04 04:08:52;;;;;;;8.50;5.82;;;;;;;;;;5031279;28;20271;-80
2022/10/04 04:11:24;;;;;;;12.25;6.05;;;;;;;;;;5043782;28;20070;-82
2022/10/04 04:14:12;;;;;;;8.55;6.15;;;;;;;;;;5031825;28;20023;-82
2022/10/04 04:16:38;;;;;;;11.85;6.07;;;;;;;;;;5031072;28;20075;-79
2022/10/04 04:19:09;;;;;;;9.93;6.15;;;;;;;;;;5030928;28;20438;-81
2022/10/04 04:21:35;;;;;;;8.63;6.00;;;;;;;;;;5032290;28;20033;-80
2022/10/04 04:24:02;;;;;;;10.07;6.38;;;;;;;;;;5031524;28;20016;-81
2022/10/04 04:26:31;;;;;;;14.27;5.45;;;;;;;;;;5025425;28;20025;-83
2022/10/04 04:29:07;;;;;;;8.32;5.35;;;;;;;;;;5042942;28;20028;-81
2022/10/04 04:31:36;;;;;;;15.20;5.50;;;;;;;;;;5027292;28;20056;-80
2022/10/04 04:34:04;;;;;;;10.32;5.50;;;;;;;;;;5030183;28;20052;-79
2022/10/04 04:36:30;;;;;;;12.18;6.15;;;;;;;;;;5039316;28;20036;-78
2022/10/04 04:41:50;;;;;;;11.43;6.23;;;;;;;;;;5030713;28;20064;-79
2022/10/04 04:44:16;;;;;;;11.02;5.28;;;;;;;;;;5023123;28;20756;-79
2022/10/04 04:46:43;;;;;;;9.60;6.07;;;;;;;;;;5023487;28;20120;-79
2022/10/04 04:49:09;;;;;;;8.07;5.00;;;;;;;;;;5030921;28;20013;-80
2022/10/04 04:51:34;;;;;;;9.43;5.45;;;;;;;;;;5028815;28;20067;-79
2022/10/04 04:54:02;;;;;;;9.20;5.75;;;;;;;;;;5026721;28;20025;-79
2022/10/04 04:56:28;;;;;;;13.70;6.35;;;;;;;;;;5029185;28;20029;-79
2022/10/04 04:58:55;;;;;;;9.95;6.25;;;;;;;;;;5018592;28;20026;-81
2022/10/04 05:01:24;;;;;;;8.80;6.03;;;;;;;;;;5017757;28;20044;-80
2022/10/04 05:04:08;;;;;;;12.15;6.05;;;;;;;;;;5033654;28;20672;-80
2022/10/04 05:06:34;;;;;;;9.50;5.57;;;;;;;;;;5030953;28;20022;-80
2022/10/04 05:08:59;;;;;;;10.25;6.10;;;;;;;;;;5024354;28;20029;-80
2022/10/04 05:11:28;;;;;;;9.43;5.95;;;;;;;;;;5031393;28;20017;-81
2022/10/04 05:13:56;;;;;;;15.38;6.30;;;;;;;;;;5031284;28;20040;-80
2022/10/04 05:16:25;;;;;;;11.05;6.80;;;;;;;;;;5021266;28;20028;-80
2022/10/04 05:18:58;;;;;;;15.73;6.38;;;;;;;;;;5041559;28;20013;-80
2022/10/04 05:21:26;;;;;;;14.33;7.13;;;;;;;;;;5031321;28;20060;-80
2022/10/04 05:23:52;;;;;;;9.88;6.57;;;;;;;;;;5050890;28;20774;-79
2022/10/04 05:26:21;;;;;;;16.02;6.38;;;;;;;;;;5031352;28;20030;-80
2022/10/04 05:28:47;;;;;;;10.48;6.20;;;;;;;;;;5030531;28;20014;-81
2022/10/04 05:31:26;;;;;;;10.35;6.18;;;;;;;;;;5031550;28;20866;-80
2022/10/04 05:33:54;;;;;;;10.93;6.45;;;;;;;;;;5010110;28;20575;-79
2022/10/04 05:36:19;;;;;;;9.40;5.68;;;;;;;;;;5001825;28;20770;-79
2022/10/04 05:38:52;;;;;;;9.83;7.17;;;;;;;;;;5008189;28;20028;-79
2022/10/04 05:41:27;;;;;;;11.48;7.30;;;;;;;;;;5002762;28;20280;-79
2022/10/04 05:43:53;;;;;;;20.45;6.95;;;;;;;;;;5007625;28;20035;-79
2022/10/04 05:46:21;;;;;;;9.73;6.60;;;;;;;;;;5019327;28;20029;-79
2022/10/04 05:48:50;;;;;;;13.93;7.18;;;;;;;;;;5008094;28;20100;-79
2022/10/04 05:51:19;;;;;;;16.48;6.75;;;;;;;;;;4998604;28;21497;-76
2022/10/04 05:53:45;;;;;;;13.73;7.63;;;;;;;;;;5004642;28;20234;-76
2022/10/04 05:56:29;;;;;;;12.50;7.45;;;;;;;;;;4989663;28;20021;-76
2022/10/04 05:59:03;;;;;;;14.85;7.53;;;;;;;;;;4994013;28;20902;-77
2022/10/04 06:01:37;;;;;;;8.35;6.65;;;;;;;;;;4980194;28;20837;-78
2022/10/04 06:04:22;;;;;;;14.75;7.47;;;;;;;;;;5018394;28;20045;-76
2022/10/04 06:07:01;;;;;;;9.98;6.72;;;;;;;;;;4971971;28;20033;-77
2022/10/04 06:09:26;;;;;;;10.10;6.60;;;;;;;;;;4985177;28;20083;-77
2022/10/04 06:12:11;;;;;;;19.73;7.60;;;;;;;;;;4992603;28;20021;-75
2022/10/04 06:14:47;;;;;;;11.00;7.15;;;;;;;;;;4994044;28;20297;-79
2022/10/04 06:17:44;;;;;;;10.70;7.10;;;;;;;;;;5028562;28;20080;-80
2022/10/04 06:20:28;;;;;;;9.35;7.18;;;;;;;;;;4974635;28;20995;-78
2022/10/04 06:22:58;;;;;;;9.77;7.00;;;;;;;;;;5018633;28;20018;-78
2022/10/04 06:25:34;;;;;;;11.45;6.97;;;;;;;;;;4997278;28;20021;-79
2022/10/04 06:28:10;;;;;;;18.05;8.55;;;;;;;;;;5000053;28;20024;-78
2022/10/04 06:30:56;;;;;;;17.35;8.60;;;;;;;;;;4995828;28;20049;-79
2022/10/04 06:33:33;;;;;;;12.95;7.93;;;;;;;;;;4995799;28;20034;-79
2022/10/04 06:36:11;;;;;;;10.77;7.82;;;;;;;;;;4997115;28;20052;-79
2022/10/04 06:38:45;;;;;;;10.95;7.65;;;;;;;;;;4996580;28;20021;-78
2022/10/04 06:41:11;;;;;;;15.73;8.05;;;;;;;;;;4996634;28;20025;-78
2022/10/04 06:43:36;;;;;;;9.17;7.40;;;;;;;;;;4997802;28;20124;-78
2022/10/04 06:46:04;;;;;;;10.20;7.50;;;;;;;;;;4998763;28;20288;-78
2022/10/04 06:48:55;;;;;;;14.43;7.95;;;;;;;;;;4988000;28;21208;-79
2022/10/04 06:51:20;;;;;;;16.52;8.60;;;;;;;;;;4996542;28;20036;-78
2022/10/04 06:53:52;;;;;;;12.98;7.55;;;;;;;;;;4993490;28;20022;-78
2022/10/04 06:56:32;;;;;;;14.90;8.73;;;;;;;;;;4989494;28;20025;-79
2022/10/04 06:59:17;;;;;;;26.38;10.32;;;;;;;;;;4996524;28;20018;-79
2022/10/04 07:01:42;;;;;;;;;;;;;;;;;;5006263;28;20842;-78
2022/10/04 07:04:07;;;;;;;10.57;7.93;;;;;;;;;;5009734;28;20497;-79
2022/10/04 07:06:37;;;;;;;17.13;9.80;;;;;;;;;;4998515;28;20890;-78
2022/10/04 07:09:04;;;;;;;15.60;9.25;;;;;;;;;;4990807;28;20019;-78
2022/10/04 07:12:02;;;;;;;14.02;9.68;;;;;;;;;;4991161;28;20016;-78
2022/10/04 07:14:30;;;;;;;13.50;9.50;;;;;;;;;;4995533;28;20939;-79
2022/10/04 07:17:00;;;;;;;14.57;8.82;;;;;;;;;;4996454;28;20025;-79
2022/10/04 07:19:29;;;;;;;13.15;9.48;;;;;;;;;;4998206;28;20145;-78
2022/10/04 07:21:55;;;;;;;13.40;9.40;;;;;;;;;;4997342;28;20980;-79
2022/10/04 07:24:24;;;;;;;19.58;9.57;;;;;;;;;;5000328;28;20036;-78
2022/10/04 07:26:51;;;;;;;11.43;8.35;;;;;;;;;;5000769;28;20116;-71
2022/10/04 07:29:23;;;;;;;12.82;8.85;;;;;;;;;;4994873;28;20024;-78
2022/10/04 07:32:09;;;;;;;11.27;7.65;;;;;;;;;;4994076;28;20032;-78
2022/10/04 07:34:38;;;;;;;9.18;7.45;;;;;;;;;;5001472;28;20032;-77
2022/10/04 07:37:09;;;;;;;22.90;9.70;;;;;;;;;;4984947;28;20041;-78
2022/10/04 07:39:40;;;;;;;17.83;8.38;;;;;;;;;;4992780;28;20151;-78
2022/10/04 07:42:06;;;;;;;10.35;7.75;;;;;;;;;;4993719;28;20033;-78
2022/10/04 07:44:37;;;;;;;17.55;9.27;;;;;;;;;;4992370;28;20029;-78
2022/10/04 07:47:02;;;;;;;12.15;8.27;;;;;;;;;;4997483;28;20128;-79
2022/10/04 07:49:27;;;;;;;12.90;9.27;;;;;;;;;;4993006;28;20028;-78
2022/10/04 07:51:52;;;;;;;17.15;9.30;;;;;;;;;;4989431;28;20783;-78
2022/10/04 07:54:17;;;;;;;11.77;9.23;;;;;;;;;;4992254;28;20017;-79
2022/10/04 07:56:50;;;;;;;20.83;9.90;;;;;;;;;;4995975;28;20304;-79
2022/10/04 07:59:25;;;;;;;13.85;9.30;;;;;;;;;;4995827;28;20299;-80
2022/10/04 08:02:17;;;;;;;17.15;9.88;;;;;;;;;;4997650;28;20232;-79
2022/10/04 08:04:42;;;;;;;15.02;8.18;;;;;;;;;;4991905;28;20037;-79
2022/10/04 08:07:17;;;;;;;17.92;9.10;;;;;;;;;;4996191;28;20986;-74
2022/10/04 08:09:49;;;;;;;12.77;8.25;;;;;;;;;;4996009;28;20036;-74
2022/10/04 08:12:18;;;;;;;21.17;8.50;;;;;;;;;;4990519;28;20127;-75
2022/10/04 08:14:43;;;;;;;13.52;7.95;;;;;;;;;;5002912;28;20095;-76
2022/10/04 08:17:10;;;;;;;10.83;7.43;;;;;;;;;;4993792;28;20029;-72
2022/10/04 08:20:04;;;;;;;13.68;8.25;;;;;;;;;;4993231;28;21258;-74
2022/10/04 08:22:38;;;;;;;12.32;7.70;;;;;;;;;;4965990;28;20034;-74
2022/10/04 08:25:22;;;;;;;12.45;6.82;;;;;;;;;;4993766;28;20044;-74
2022/10/04 08:30:47;;;;;;;12.65;6.15;;;;;;;;;;4987119;28;20595;-75
2022/10/04 08:33:27;;;;;;;14.32;6.43;;;;;;;;;;4992035;28;20881;-78
2022/10/04 08:36:25;;;;;;;13.40;5.95;;;;;;;;;;4995365;28;20041;-78
2022/10/04 08:38:57;;;;;;;12.82;7.03;;;;;;;;;;4984289;28;20025;-78
2022/10/04 08:41:41;;;;;;;12.15;5.35;;;;;;;;;;4990697;28;20029;-78
2022/10/04 08:44:19;;;;;;;12.00;5.60;;;;;;;;;;4991022;28;20056;-75
2022/10/04 08:46:54;;;;;;;8.85;5.60;;;;;;;;;;4992280;28;20022;-77
2022/10/04 08:49:22;;;;;;;9.57;5.07;;;;;;;;;;4981966;28;20021;-78
2022/10/04 08:51:51;;;;;;;9.45;5.15;;;;;;;;;;4993388;28;20048;-78
2022/10/04 08:54:35;;;;;;;9.98;4.68;;;;;;;;;;4998910;28;20140;-78
2022/10/04 08:57:00;;;;;;;8.00;4.55;;;;;;;;;;5001080;28;20032;-79
2022/10/04 08:59:37;;;;;;;7.90;4.93;;;;;;;;;;5020402;28;20088;-76
2022/10/04 09:02:13;;;;;;;12.43;4.20;;;;;;;;;;5023780;28;20319;-78
2022/10/04 09:04:39;;;;;;;13.60;4.50;;;;;;;;;;4994509;28;20060;-79
2022/10/04 09:07:07;;;;;;;8.18;4.35;;;;;;;;;;5007973;28;20026;-77
2022/10/04 09:09:41;;;;;;;9.18;4.82;;;;;;;;;;5013511;28;20395;-78
2022/10/04 09:12:06;;;;;;;9.57;4.72;;;;;;;;;;5015349;28;20033;-80
2022/10/04 09:14:31;;;;;;;6.87;4.40;;;;;;;;;;5018409;28;20130;-77
2022/10/04 09:17:16;;;;;;;11.70;4.40;;;;;;;;;;5020317;28;20796;-79
2022/10/04 09:19:58;;;;;;;8.82;4.40;;;;;;;;;;5019567;28;20041;-81
2022/10/04 09:22:24;;;;;;;9.80;5.10;;;;;;;;;;5017436;28;20029;-81
2022/10/04 09:24:55;;;;;;;8.75;4.38;;;;;;;;;;5017114;28;20035;-79
2022/10/04 09:27:27;;;;;;;7.68;4.07;;;;;;;;;;5015648;28;20032;-78
2022/10/04 09:29:52;;;;;;;8.60;4.20;;;;;;;;;;5013101;28;20033;-79
2022/10/04 09:32:25;;;;;;;22.77;4.73;;;;;;;;;;5001679;28;20547;-80
2022/10/04 09:35:09;;;;;;;6.05;3.97;;;;;;;;;;5002374;28;20279;-82
2022/10/04 09:37:37;;;;;;;8.23;3.83;;;;;;;;;;5000506;28;20090;-80
2022/10/04 09:40:21;;;;;;;5.43;3.22;;;;;;;;;;5013023;28;20094;-82
2022/10/04 09:42:53;;;;;;;6.75;3.85;;;;;;;;;;4997453;28;20021;-79
2022/10/04 09:45:20;;;;;;;8.05;4.25;;;;;;;;;;4996192;28;20057;-83
2022/10/04 09:47:45;;;;;;;10.43;3.92;;;;;;;;;;4997383;28;20022;-84
2022/10/04 09:50:25;;;;;;;6.57;3.87;;;;;;;;;;4997734;28;21133;-84
2022/10/04 09:52:54;;;;;;;10.93;4.38;;;;;;;;;;4997611;28;20330;-78
2022/10/04 09:55:22;;;;;;;12.60;4.72;;;;;;;;;;4990617;28;20026;-76
2022/10/04 09:58:02;;;;;;;8.27;4.50;;;;;;;;;;5002863;28;20032;-78
2022/10/04 10:00:54;;;;;;;8.10;3.60;;;;;;;;;;4992320;28;20021;-78
2022/10/04 10:03:25;;;;;;;14.32;4.60;;;;;;;;;;4990031;28;20044;-78
2022/10/04 10:06:09;;;;;;;8.85;3.38;;;;;;;;;;4988246;28;20017;-76
2022/10/04 10:08:34;;;;;;;7.95;4.18;;;;;;;;;;4997742;28;20014;-72
2022/10/04 10:14:02;;;;;;;9.18;4.20;;;;;;;;;;4994489;28;20031;-82
2022/10/04 10:16:28;;;;;;;12.15;4.10;;;;;;;;;;4987155;28;20018;-77
2022/10/04 10:19:13;;;;;;;7.75;3.78;;;;;;;;;;4975472;28;20034;-81
2022/10/04 10:22:01;;;;;;;5.72;2.45;;;;;;;;;;4999903;28;20032;-81
2022/10/04 10:24:45;;;;;;;8.35;4.15;;;;;;;;;;5006866;28;20072;-85
2022/10/04 10:27:18;;;;;;;8.60;4.60;;;;;;;;;;5020274;28;20028;-84
2022/10/04 10:29:56;;;;;;;7.97;3.95;;;;;;;;;;5006977;28;20018;-85
2022/10/04 10:32:43;;;;;;;7.97;3.72;;;;;;;;;;4995709;28;20021;-85
2022/10/04 10:35:22;;;;;;;6.68;3.22;;;;;;;;;;4999491;28;20164;-78
2022/10/04 10:37:47;;;;;;;6.57;3.45;;;;;;;;;;4988344;28;20026;-78
2022/10/04 10:40:31;;;;;;;6.83;3.23;;;;;;;;;;4999337;28;21011;-83
2022/10/04 10:43:14;;;;;;;6.43;3.10;;;;;;;;;;4996492;28;20021;-84
2022/10/04 10:45:44;;;;;;;9.02;3.35;;;;;;;;;;5006121;28;20021;-84
2022/10/04 10:48:23;;;;;;;9.10;3.80;;;;;;;;;;5001256;28;20029;-78
2022/10/04 10:51:09;;;;;;;9.95;3.80;;;;;;;;;;4994682;28;20013;-83
2022/10/04 10:53:40;;;;;;;9.77;3.58;;;;;;;;;;4996260;28;20033;-86
2022/10/04 10:56:24;;;;;;;10.10;3.28;;;;;;;;;;4990767;28;20128;-80
2022/10/04 10:59:28;;;;;;;5.90;3.50;;;;;;;;;;4996715;28;20072;-85
2022/10/04 11:02:03;;;;;;;6.95;2.72;;;;;;;;;;4974669;28;20156;-73
2022/10/04 11:04:48;;;;;;;7.00;4.00;;;;;;;;;;4986758;28;20018;-85
2022/10/04 11:07:15;;;;;;;6.30;3.20;;;;;;;;;;4988316;28;20061;-85
2022/10/04 11:09:54;;;;;;;7.05;3.50;;;;;;;;;;4990499;28;20018;-80
2022/10/04 11:12:26;;;;;;;11.50;4.18;;;;;;;;;;5010293;28;20087;-79
2022/10/04 11:15:13;;;;;;;10.50;3.88;;;;;;;;;;4993364;28;20048;-84
2022/10/04 11:17:38;;;;;;;9.15;3.95;;;;;;;;;;4983224;28;20030;-85
2022/10/04 11:20:26;;;;;;;5.57;3.20;;;;;;;;;;5002206;28;20775;-85
2022/10/04 11:23:11;;;;;;;12.93;3.88;;;;;;;;;;4989466;28;20282;-79
2022/10/04 11:25:38;;;;;;;7.57;3.40;;;;;;;;;;4993773;28;20021;-78
2022/10/04 11:28:17;;;;;;;5.63;3.30;;;;;;;;;;4995849;28;20043;-84
2022/10/04 11:31:00;;;;;;;14.38;4.40;;;;;;;;;;4994083;28;20028;-82
2022/10/04 11:33:44;;;;;;;5.70;3.45;;;;;;;;;;4978126;28;20889;-78
2022/10/04 11:36:09;;;;;;;6.72;3.47;;;;;;;;;;4993634;28;20033;-78
2022/10/04 11:38:39;;;;;;;7.03;3.63;;;;;;;;;;4993906;28;20014;-77
2022/10/04 11:41:21;;;;;;;8.32;3.58;;;;;;;;;;5021313;28;20958;-81
2022/10/04 11:43:58;;;;;;;7.85;3.40;;;;;;;;;;4999176;28;20025;-85
2022/10/04 11:46:48;;;;;;;6.63;3.50;;;;;;;;;;4989978;28;20888;-84
2022/10/04 11:49:27;;;;;;;11.50;3.53;;;;;;;;;;4990768;28;20852;-84
2022/10/04 11:52:03;;;;;;;6.40;3.53;;;;;;;;;;5011578;28;20141;-82
2022/10/04 11:54:37;;;;;;;11.70;4.18;;;;;;;;;;4989330;28;20063;-83
2022/10/04 11:57:06;;;;;;;16.92;3.60;;;;;;;;;;4987407;28;20028;-84
2022/10/04 11:59:36;;;;;;;9.48;4.13;;;;;;;;;;4999698;28;20021;-74
2022/10/04 12:02:15;;;;;;;7.68;3.35;;;;;;;;;;5024053;28;20049;-79
2022/10/04 12:04:52;;;;;;;5.45;3.30;;;;;;;;;;5030023;28;20099;-80
2022/10/04 12:07:48;;;;;;;7.05;3.13;;;;;;;;;;5049682;28;20094;-84
2022/10/04 12:10:20;;;;;;;8.38;3.60;;;;;;;;;;5028222;28;20108;-83
2022/10/04 12:12:52;;;;;;;6.70;3.95;;;;;;;;;;5031900;28;20440;-80
2022/10/04 12:15:17;;;;;;;8.38;3.97;;;;;;;;;;5035999;28;20036;-83
2022/10/04 12:18:04;;;;;;;13.30;3.42;;;;;;;;;;5039859;28;20021;-84
2022/10/04 12:20:32;;;;;;;9.82;3.50;;;;;;;;;;5019583;28;20033;-81
2022/10/04 12:23:36;;;;;;;8.02;4.05;;;;;;;;;;5035650;28;20036;-75
2022/10/04 12:26:06;;;;;;;8.43;4.03;;;;;;;;;;4984534;28;20636;-85
2022/10/04 12:28:43;;;;;;;7.50;3.20;;;;;;;;;;4990549;28;20471;-82
2022/10/04 12:31:17;;;;;;;8.80;3.90;;;;;;;;;;5013363;28;20029;-85
2022/10/04 12:33:58;;;;;;;7.00;3.58;;;;;;;;;;5046684;28;20026;-83
2022/10/04 12:36:23;;;;;;;5.70;3.70;;;;;;;;;;5033562;28;20029;-83
2022/10/04 12:38:48;;;;;;;7.13;3.78;;;;;;;;;;5044297;28;20494;-83
2022/10/04 12:41:32;;;;;;;14.97;3.70;;;;;;;;;;5034052;28;20037;-83
2022/10/04 12:43:59;;;;;;;7.85;3.67;;;;;;;;;;5033860;28;20291;-83
2022/10/04 12:46:28;;;;;;;6.80;3.75;;;;;;;;;;5032031;28;20041;-80
2022/10/04 12:48:53;;;;;;;6.70;3.92;;;;;;;;;;5034368;28;20143;-82
2022/10/04 12:51:38;;;;;;;6.33;3.33;;;;;;;;;;5020045;28;20025;-80
2022/10/04 12:54:12;;;;;;;8.75;3.70;;;;;;;;;;5040304;28;20272;-81
2022/10/04 12:56:37;;;;;;;;;;;;;;;;;;5044500;28;20025;-81
2022/10/04 12:59:18;;;;;;;7.03;3.58;;;;;;;;;;5022892;28;19959;-81
2022/10/04 13:02:04;;;;;;;15.75;4.45;;;;;;;;;;5031708;28;20034;-83
2022/10/04 13:04:32;;;;;;;5.78;2.70;;;;;;;;;;5025949;28;20053;-82
2022/10/04 13:07:25;;;;;;;6.05;3.05;;;;;;;;;;5025770;28;20071;-81
2022/10/04 13:09:50;;;;;;;5.47;3.15;;;;;;;;;;5036151;28;20041;-83
2022/10/04 13:12:30;;;;;;;7.78;3.20;;;;;;;;;;5029885;28;20472;-76
2022/10/04 13:14:57;;;;;;;8.38;3.00;;;;;;;;;;5017970;28;20232;-83
2022/10/04 13:17:41;;;;;;;6.60;3.05;;;;;;;;;;5019384;28;20021;-81
2022/10/04 13:20:24;;;;;;;7.90;3.53;;;;;;;;;;5023615;28;20040;-82
2022/10/04 13:23:06;;;;;;;4.47;2.30;;;;;;;;;;5022039;28;20021;-83
2022/10/04 13:25:47;;;;;;;8.15;2.80;;;;;;;;;;5013674;28;20029;-83
2022/10/04 13:28:21;;;;;;;6.47;3.10;;;;;;;;;;5026704;28;20029;-79
2022/10/04 13:30:46;;;;;;;11.13;3.65;;;;;;;;;;5041426;28;20132;-79
2022/10/04 13:33:14;;;;;;;6.30;3.30;;;;;;;;;;5019534;28;20155;-83
2022/10/04 13:35:46;;;;;;;4.45;2.50;;;;;;;;;;5023916;28;20358;-81
2022/10/04 13:38:26;;;;;;;5.25;3.00;;;;;;;;;;5028211;28;20087;-80
2022/10/04 13:40:58;;;;;;;8.25;3.95;;;;;;;;;;5024471;28;20392;-83
2022/10/04 13:43:27;;;;;;;6.53;2.80;;;;;;;;;;5026401;28;20080;-82
2022/10/04 13:46:05;;;;;;;9.75;3.38;;;;;;;;;;5030107;28;20499;-85
2022/10/04 13:48:40;;;;;;;5.95;2.25;;;;;;;;;;5024531;28;20028;-82
2022/10/04 13:51:05;;;;;;;5.88;3.00;;;;;;;;;;5000312;28;20018;-78
2022/10/04 13:57:07;;;;;;;5.95;2.60;;;;;;;;;;4960337;28;20026;-84
2022/10/04 13:59:33;;;;;;;5.70;2.80;;;;;;;;;;4994366;28;20037;-83
2022/10/04 14:02:17;;;;;;;5.03;2.35;;;;;;;;;;4987357;28;20037;-85
2022/10/04 14:04:42;;;;;;;;;;;;;;;;;;5025373;28;20123;-82
2022/10/04 14:07:07;;;;;;;14.32;3.10;;;;;;;;;;4992671;28;20975;-81
2022/10/04 14:09:48;;;;;;;3.67;1.90;;;;;;;;;;4998446;28;20036;-80
2022/10/04 14:12:14;;;;;;;5.07;2.35;;;;;;;;;;4995561;28;20925;-86
2022/10/04 14:14:42;;;;;;;7.15;3.25;;;;;;;;;;4991961;28;20074;-82
2022/10/04 14:17:23;;;;;;;4.53;2.50;;;;;;;;;;4981391;28;20091;-84
2022/10/04 14:19:59;;;;;;;6.38;2.38;;;;;;;;;;4991511;28;20025;-80
2022/10/04 14:22:35;;;;;;;9.43;3.10;;;;;;;;;;4996006;28;20851;-74
2022/10/04 14:25:19;;;;;;;4.30;2.63;;;;;;;;;;4995848;28;20021;-79
2022/10/04 14:28:03;;;;;;;6.30;2.72;;;;;;;;;;4993504;28;20322;-83
2022/10/04 14:30:39;;;;;;;4.97;2.45;;;;;;;;;;5000047;28;20021;-84
2022/10/04 14:33:24;;;;;;;5.90;2.78;;;;;;;;;;4992929;28;20026;-82
2022/10/04 14:36:09;;;;;;;7.30;2.70;;;;;;;;;;4994941;28;20128;-81
2022/10/04 14:38:34;;;;;;;4.65;2.45;;;;;;;;;;4996694;28;20079;-84
2022/10/04 14:41:06;;;;;;;5.32;2.70;;;;;;;;;;4998000;28;20842;-82
2022/10/04 14:43:59;;;;;;;6.10;2.40;;;;;;;;;;5001878;28;20092;-82
2022/10/04 14:46:24;;;;;;;7.78;3.55;;;;;;;;;;4987549;28;20080;-83
2022/10/04 14:48:52;;;;;;;5.03;2.27;;;;;;;;;;4994324;28;20021;-84
2022/10/04 14:51:33;;;;;;;7.47;2.22;;;;;;;;;;4995109;28;20064;-82
2022/10/04 14:54:17;;;;;;;5.65;2.92;;;;;;;;;;4994344;28;20103;-83
2022/10/04 14:56:59;;;;;;;6.72;2.63;;;;;;;;;;4997364;28;20078;-83
2022/10/04 14:59:48;;;;;;;7.05;2.80;;;;;;;;;;4996378;28;20458;-79
2022/10/04 15:02:27;;;;;;;6.63;2.75;;;;;;;;;;4992671;28;20033;-84
2022/10/04 15:04:58;;;;;;;5.22;2.42;;;;;;;;;;4995641;28;20025;-81
2022/10/04 15:07:30;;;;;;;4.10;2.08;;;;;;;;;;4993472;28;20025;-80
2022/10/04 15:10:10;;;;;;;4.88;2.83;;;;;;;;;;4996527;28;20021;-81
2022/10/04 15:12:55;;;;;;;4.95;2.63;;;;;;;;;;4982339;28;20821;-78
2022/10/04 15:15:20;;;;;;;;;;;;;;;;;;4990195;28;20018;-75
2022/10/04 15:17:46;;;;;;;5.15;2.20;;;;;;;;;;4993512;28;19912;-84
2022/10/04 15:20:21;;;;;;;6.53;3.23;;;;;;;;;;5011560;28;20859;-84
2022/10/04 15:23:13;;;;;;;5.47;3.10;;;;;;;;;;4989419;28;20272;-83
2022/10/04 15:25:46;;;;;;;8.25;2.78;;;;;;;;;;4995003;28;20087;-84
2022/10/04 15:28:11;;;;;;;5.43;3.13;;;;;;;;;;5004852;28;20032;-84
2022/10/04 15:30:45;;;;;;;5.33;2.93;;;;;;;;;;4999702;28;20789;-83
2022/10/04 15:33:33;;;;;;;6.47;3.00;;;;;;;;;;5000955;28;20303;-84
2022/10/04 15:36:17;;;;;;;5.97;3.08;;;;;;;;;;4995683;28;20828;-86
2022/10/04 15:38:47;;;;;;;6.47;3.20;;;;;;;;;;4983707;28;20033;-81
2022/10/04 15:41:12;;;;;;;13.55;3.20;;;;;;;;;;4996146;28;20022;-85
2022/10/04 15:43:42;;;;;;;10.53;3.07;;;;;;;;;;5003364;28;20060;-86